sensor_id;sensor_type;location;lat;lon;timestamp;pressure;altitude;pressure_sealevel;temperature;humidity
55604;BME280;41468;48.838;9.330;2024-03-29T00:01:34;96684.66;;;8.19;56.90
55604;BME280;41468;48.838;9.330;2024-03-29T00:04:00;96692.03;;;8.29;57.24
55604;BME280;41468;48.838;9.330;2024-03-29T00:06:25;96676.09;;;8.31;57.27
55604;BME280;41468;48.838;9.330;2024-03-29T00:08:51;96672.63;;;8.24;57.76
55604;BME280;41468;48.838;9.330;2024-03-29T00:11:16;96662.91;;;8.19;58.23
55604;BME280;41468;48.838;9.330;2024-03-29T00:13:42;96659.84;;;8.10;58.61
55604;BME280;41468;48.838;9.330;2024-03-29T00:16:07;96649.72;;;8.14;58.62
55604;BME280;41468;48.838;9.330;2024-03-29T00:18:33;96644.28;;;8.21;58.58
55604;BME280;41468;48.838;9.330;2024-03-29T00:20:59;96633.78;;;8.30;57.91
55604;BME280;41468;48.838;9.330;2024-03-29T00:23:24;96636.88;;;8.22;58.48
55604;BME280;41468;48.838;9.330;2024-03-29T00:25:50;96630.28;;;8.26;58.80
55604;BME280;41468;48.838;9.330;2024-03-29T00:28:15;96630.31;;;8.23;58.87
55604;BME280;41468;48.838;9.330;2024-03-29T00:30:41;96610.84;;;8.24;58.63
55604;BME280;41468;48.838;9.330;2024-03-29T00:33:06;96611.59;;;8.35;58.08
55604;BME280;41468;48.838;9.330;2024-03-29T00:35:37;96614.31;;;8.35;57.90
55604;BME280;41468;48.838;9.330;2024-03-29T00:38:03;96591.78;;;8.35;57.96
55604;BME280;41468;48.838;9.330;2024-03-29T00:40:29;96590.22;;;8.37;58.15
55604;BME280;41468;48.838;9.330;2024-03-29T00:42:54;96571.59;;;8.43;57.73
55604;BME280;41468;48.838;9.330;2024-03-29T00:45:26;96557.59;;;8.37;58.53
55604;BME280;41468;48.838;9.330;2024-03-29T00:47:54;96560.69;;;8.43;57.98
55604;BME280;41468;48.838;9.330;2024-03-29T00:50:19;96558.31;;;8.56;57.37
55604;BME280;41468;48.838;9.330;2024-03-29T00:52:45;96561.06;;;8.49;57.68
55604;BME280;41468;48.838;9.330;2024-03-29T00:55:13;96552.50;;;8.54;57.37
55604;BME280;41468;48.838;9.330;2024-03-29T00:57:39;96556.00;;;8.51;57.27
55604;BME280;41468;48.838;9.330;2024-03-29T01:00:05;96549.34;;;8.59;56.61
55604;BME280;41468;48.838;9.330;2024-03-29T01:02:31;96547.00;;;8.68;57.21
55604;BME280;41468;48.838;9.330;2024-03-29T01:04:57;96547.34;;;8.70;56.75
55604;BME280;41468;48.838;9.330;2024-03-29T01:07:22;96546.91;;;8.82;56.31
55604;BME280;41468;48.838;9.330;2024-03-29T01:09:48;96551.16;;;8.87;57.52
55604;BME280;41468;48.838;9.330;2024-03-29T01:12:13;96557.75;;;8.90;55.93
55604;BME280;41468;48.838;9.330;2024-03-29T01:14:39;96554.94;;;8.97;55.42
55604;BME280;41468;48.838;9.330;2024-03-29T01:17:05;96551.06;;;8.98;55.31
55604;BME280;41468;48.838;9.330;2024-03-29T01:19:32;96546.38;;;9.02;56.36
55604;BME280;41468;48.838;9.330;2024-03-29T01:21:58;96551.78;;;9.09;55.62
55604;BME280;41468;48.838;9.330;2024-03-29T01:24:23;96543.63;;;9.05;55.92
55604;BME280;41468;48.838;9.330;2024-03-29T01:26:55;96537.44;;;9.01;55.87
55604;BME280;41468;48.838;9.330;2024-03-29T01:29:20;96532.78;;;8.98;55.69
55604;BME280;41468;48.838;9.330;2024-03-29T01:31:46;96531.66;;;8.96;55.75
55604;BME280;41468;48.838;9.330;2024-03-29T01:34:11;96539.81;;;8.96;56.02
55604;BME280;41468;48.838;9.330;2024-03-29T01:36:51;96545.25;;;8.96;56.51
55604;BME280;41468;48.838;9.330;2024-03-29T01:39:16;96532.47;;;8.85;56.93
55604;BME280;41468;48.838;9.330;2024-03-29T01:41:45;96531.25;;;8.97;56.48
55604;BME280;41468;48.838;9.330;2024-03-29T01:44:10;96533.59;;;8.92;56.78
55604;BME280;41468;48.838;9.330;2024-03-29T01:46:42;96524.66;;;8.91;56.70
55604;BME280;41468;48.838;9.330;2024-03-29T01:49:10;96529.00;;;8.85;56.78
55604;BME280;41468;48.838;9.330;2024-03-29T01:51:37;96511.91;;;8.84;56.60
55604;BME280;41468;48.838;9.330;2024-03-29T01:54:12;96525.88;;;8.87;57.23
55604;BME280;41468;48.838;9.330;2024-03-29T01:56:39;96521.97;;;8.88;56.95
55604;BME280;41468;48.838;9.330;2024-03-29T01:59:12;96515.00;;;8.87;56.75
55604;BME280;41468;48.838;9.330;2024-03-29T02:01:39;96520.50;;;8.76;57.11
55604;BME280;41468;48.838;9.330;2024-03-29T02:04:05;96516.19;;;8.78;56.59
55604;BME280;41468;48.838;9.330;2024-03-29T02:06:32;96521.72;;;8.71;57.67
55604;BME280;41468;48.838;9.330;2024-03-29T02:08:57;96519.38;;;8.73;57.83
55604;BME280;41468;48.838;9.330;2024-03-29T02:11:23;96510.78;;;8.75;57.58
55604;BME280;41468;48.838;9.330;2024-03-29T02:13:49;96508.06;;;8.75;57.99
55604;BME280;41468;48.838;9.330;2024-03-29T02:16:15;96506.91;;;8.72;58.01
55604;BME280;41468;48.838;9.330;2024-03-29T02:18:41;96518.16;;;8.78;58.29
55604;BME280;41468;48.838;9.330;2024-03-29T02:21:07;96522.88;;;8.67;59.17
55604;BME280;41468;48.838;9.330;2024-03-29T02:23:35;96525.56;;;8.74;57.50
55604;BME280;41468;48.838;9.330;2024-03-29T02:26:02;96512.69;;;8.81;57.55
55604;BME280;41468;48.838;9.330;2024-03-29T02:28:30;96499.88;;;8.82;57.50
55604;BME280;41468;48.838;9.330;2024-03-29T02:31:01;96502.94;;;8.88;56.41
55604;BME280;41468;48.838;9.330;2024-03-29T02:33:28;96497.06;;;8.89;56.10
55604;BME280;41468;48.838;9.330;2024-03-29T02:35:53;96505.25;;;8.89;56.17
55604;BME280;41468;48.838;9.330;2024-03-29T02:38:19;96508.38;;;8.88;56.33
55604;BME280;41468;48.838;9.330;2024-03-29T02:40:45;96511.06;;;8.95;55.88
55604;BME280;41468;48.838;9.330;2024-03-29T02:43:11;96507.16;;;8.96;56.21
55604;BME280;41468;48.838;9.330;2024-03-29T02:45:36;96498.63;;;8.90;56.41
55604;BME280;41468;48.838;9.330;2024-03-29T02:48:14;96479.16;;;8.92;56.20
55604;BME280;41468;48.838;9.330;2024-03-29T02:50:39;96483.03;;;8.94;55.97
55604;BME280;41468;48.838;9.330;2024-03-29T02:53:05;96487.75;;;8.90;55.91
55604;BME280;41468;48.838;9.330;2024-03-29T02:55:30;96478.31;;;9.02;55.89
55604;BME280;41468;48.838;9.330;2024-03-29T02:57:56;96483.75;;;9.02;56.15
55604;BME280;41468;48.838;9.330;2024-03-29T03:00:21;96495.78;;;9.04;56.29
55604;BME280;41468;48.838;9.330;2024-03-29T03:02:47;96506.31;;;9.02;55.69
55604;BME280;41468;48.838;9.330;2024-03-29T03:05:13;96513.69;;;9.05;55.68
55604;BME280;41468;48.838;9.330;2024-03-29T03:07:39;96516.00;;;9.07;55.76
55604;BME280;41468;48.838;9.330;2024-03-29T03:10:23;96507.44;;;9.05;56.11
55604;BME280;41468;48.838;9.330;2024-03-29T03:13:07;96508.50;;;9.18;55.94
55604;BME280;41468;48.838;9.330;2024-03-29T03:15:45;96506.22;;;9.13;57.68
55604;BME280;41468;48.838;9.330;2024-03-29T03:18:11;96515.59;;;9.09;56.53
55604;BME280;41468;48.838;9.330;2024-03-29T03:20:42;96520.63;;;9.14;55.98
55604;BME280;41468;48.838;9.330;2024-03-29T03:23:08;96519.41;;;9.18;55.82
55604;BME280;41468;48.838;9.330;2024-03-29T03:25:34;96518.69;;;9.11;55.63
55604;BME280;41468;48.838;9.330;2024-03-29T03:27:59;96514.84;;;9.08;54.89
55604;BME280;41468;48.838;9.330;2024-03-29T03:30:25;96522.56;;;9.13;54.67
55604;BME280;41468;48.838;9.330;2024-03-29T03:32:50;96522.53;;;9.17;54.85
55604;BME280;41468;48.838;9.330;2024-03-29T03:35:16;96533.06;;;9.15;54.65
55604;BME280;41468;48.838;9.330;2024-03-29T03:37:41;96541.59;;;9.17;55.84
55604;BME280;41468;48.838;9.330;2024-03-29T03:40:07;96534.94;;;9.21;54.67
55604;BME280;41468;48.838;9.330;2024-03-29T03:42:33;96547.78;;;9.21;54.26
55604;BME280;41468;48.838;9.330;2024-03-29T03:44:58;96561.75;;;9.26;53.87
55604;BME280;41468;48.838;9.330;2024-03-29T03:47:24;96561.34;;;9.28;53.18
55604;BME280;41468;48.838;9.330;2024-03-29T03:49:49;96572.13;;;9.42;52.13
55604;BME280;41468;48.838;9.330;2024-03-29T03:52:15;96584.16;;;9.48;51.35
55604;BME280;41468;48.838;9.330;2024-03-29T03:54:41;96568.16;;;9.50;50.92
55604;BME280;41468;48.838;9.330;2024-03-29T03:57:06;96559.59;;;9.52;51.43
55604;BME280;41468;48.838;9.330;2024-03-29T03:59:32;96564.72;;;9.46;52.56
55604;BME280;41468;48.838;9.330;2024-03-29T04:01:57;96571.78;;;9.37;55.54
55604;BME280;41468;48.838;9.330;2024-03-29T04:04:23;96593.19;;;9.35;57.17
55604;BME280;41468;48.838;9.330;2024-03-29T04:07:01;96550.50;;;9.21;54.93
55604;BME280;41468;48.838;9.330;2024-03-29T04:09:27;96538.03;;;9.23;53.17
55604;BME280;41468;48.838;9.330;2024-03-29T04:11:53;96546.16;;;9.31;52.21
55604;BME280;41468;48.838;9.330;2024-03-29T04:14:18;96536.34;;;9.40;51.82
55604;BME280;41468;48.838;9.330;2024-03-29T04:16:44;96516.16;;;9.34;53.03
55604;BME280;41468;48.838;9.330;2024-03-29T04:19:09;96522.31;;;9.42;54.59
55604;BME280;41468;48.838;9.330;2024-03-29T04:21:35;96504.59;;;9.23;55.39
55604;BME280;41468;48.838;9.330;2024-03-29T04:24:00;96489.34;;;9.33;51.75
55604;BME280;41468;48.838;9.330;2024-03-29T04:26:26;96474.91;;;9.36;51.54
55604;BME280;41468;48.838;9.330;2024-03-29T04:28:51;96471.34;;;9.42;51.18
55604;BME280;41468;48.838;9.330;2024-03-29T04:31:17;96478.31;;;9.47;50.32
55604;BME280;41468;48.838;9.330;2024-03-29T04:33:54;96479.38;;;9.57;50.17
55604;BME280;41468;48.838;9.330;2024-03-29T04:36:19;96480.06;;;9.64;49.47
55604;BME280;41468;48.838;9.330;2024-03-29T04:38:45;96494.81;;;9.67;49.17
55604;BME280;41468;48.838;9.330;2024-03-29T04:41:10;96503.41;;;9.65;50.25
55604;BME280;41468;48.838;9.330;2024-03-29T04:43:36;96527.88;;;9.72;50.09
55604;BME280;41468;48.838;9.330;2024-03-29T04:46:03;96548.16;;;9.68;50.49
55604;BME280;41468;48.838;9.330;2024-03-29T04:48:30;96545.56;;;9.54;51.10
55604;BME280;41468;48.838;9.330;2024-03-29T04:50:56;96590.28;;;9.60;52.68
55604;BME280;41468;48.838;9.330;2024-03-29T04:53:22;96574.44;;;9.44;52.29
55604;BME280;41468;48.838;9.330;2024-03-29T04:55:54;96552.31;;;9.38;52.98
55604;BME280;41468;48.838;9.330;2024-03-29T04:58:22;96541.00;;;9.40;52.44
55604;BME280;41468;48.838;9.330;2024-03-29T05:00:48;96538.28;;;9.40;52.00
55604;BME280;41468;48.838;9.330;2024-03-29T05:03:22;96510.75;;;9.31;52.92
55604;BME280;41468;48.838;9.330;2024-03-29T05:05:50;96523.56;;;9.34;52.74
55604;BME280;41468;48.838;9.330;2024-03-29T05:08:16;96510.69;;;9.38;52.91
55604;BME280;41468;48.838;9.330;2024-03-29T05:10:49;96486.19;;;9.38;54.06
55604;BME280;41468;48.838;9.330;2024-03-29T05:13:16;96477.69;;;9.28;52.79
55604;BME280;41468;48.838;9.330;2024-03-29T05:15:53;96459.72;;;9.35;52.26
55604;BME280;41468;48.838;9.330;2024-03-29T05:18:18;96469.06;;;9.37;52.04
55604;BME280;41468;48.838;9.330;2024-03-29T05:20:44;96468.22;;;9.44;51.45
55604;BME280;41468;48.838;9.330;2024-03-29T05:23:13;96479.84;;;9.48;50.88
55604;BME280;41468;48.838;9.330;2024-03-29T05:25:40;96491.09;;;9.50;50.87
55604;BME280;41468;48.838;9.330;2024-03-29T05:28:06;96487.94;;;9.55;51.33
55604;BME280;41468;48.838;9.330;2024-03-29T05:30:33;96484.94;;;9.42;51.43
55604;BME280;41468;48.838;9.330;2024-03-29T05:32:58;96481.13;;;9.36;51.00
55604;BME280;41468;48.838;9.330;2024-03-29T05:35:24;96493.16;;;9.39;50.82
55604;BME280;41468;48.838;9.330;2024-03-29T05:37:49;96492.78;;;9.37;50.84
55604;BME280;41468;48.838;9.330;2024-03-29T05:40:18;96499.44;;;9.36;51.06
55604;BME280;41468;48.838;9.330;2024-03-29T05:42:44;96497.41;;;9.43;50.73
55604;BME280;41468;48.838;9.330;2024-03-29T05:45:23;96490.41;;;9.42;50.77
55604;BME280;41468;48.838;9.330;2024-03-29T05:47:49;96495.41;;;9.47;51.57
55604;BME280;41468;48.838;9.330;2024-03-29T05:50:15;96495.41;;;9.51;50.75
55604;BME280;41468;48.838;9.330;2024-03-29T05:52:41;96493.47;;;9.48;50.84
55604;BME280;41468;48.838;9.330;2024-03-29T05:55:12;96500.06;;;9.50;51.08
55604;BME280;41468;48.838;9.330;2024-03-29T05:57:37;96498.13;;;9.51;51.04
55604;BME280;41468;48.838;9.330;2024-03-29T06:00:07;96498.84;;;9.55;51.40
55604;BME280;41468;48.838;9.330;2024-03-29T06:02:36;96505.03;;;9.59;51.19
55604;BME280;41468;48.838;9.330;2024-03-29T06:05:08;96506.66;;;9.53;51.00
55604;BME280;41468;48.838;9.330;2024-03-29T06:07:34;96507.41;;;9.54;51.25
55604;BME280;41468;48.838;9.330;2024-03-29T06:10:00;96507.41;;;9.57;50.88
55604;BME280;41468;48.838;9.330;2024-03-29T06:12:26;96520.59;;;9.62;51.91
55604;BME280;41468;48.838;9.330;2024-03-29T06:14:52;96532.97;;;9.70;50.84
55604;BME280;41468;48.838;9.330;2024-03-29T06:17:36;96525.94;;;9.69;50.45
55604;BME280;41468;48.838;9.330;2024-03-29T06:20:02;96527.84;;;9.76;50.03
55604;BME280;41468;48.838;9.330;2024-03-29T06:22:35;96515.75;;;9.77;50.09
55604;BME280;41468;48.838;9.330;2024-03-29T06:25:00;96515.25;;;9.86;49.91
55604;BME280;41468;48.838;9.330;2024-03-29T06:27:36;96509.47;;;9.84;50.09
55604;BME280;41468;48.838;9.330;2024-03-29T06:30:05;96507.00;;;9.93;50.02
55604;BME280;41468;48.838;9.330;2024-03-29T06:32:31;96512.47;;;9.93;50.16
55604;BME280;41468;48.838;9.330;2024-03-29T06:35:05;96520.97;;;9.99;49.85
55604;BME280;41468;48.838;9.330;2024-03-29T06:37:31;96520.19;;;9.98;49.99
55604;BME280;41468;48.838;9.330;2024-03-29T06:39:56;96530.28;;;10.01;50.16
55604;BME280;41468;48.838;9.330;2024-03-29T06:42:22;96524.00;;;10.04;50.09
55604;BME280;41468;48.838;9.330;2024-03-29T06:44:47;96528.75;;;10.00;50.02
55604;BME280;41468;48.838;9.330;2024-03-29T06:47:13;96522.09;;;10.01;50.65
55604;BME280;41468;48.838;9.330;2024-03-29T06:49:44;96525.91;;;10.07;50.43
55604;BME280;41468;48.838;9.330;2024-03-29T06:52:11;96506.75;;;10.14;49.68
55604;BME280;41468;48.838;9.330;2024-03-29T06:54:36;96509.03;;;10.20;49.71
55604;BME280;41468;48.838;9.330;2024-03-29T06:57:14;96506.19;;;10.30;50.05
55604;BME280;41468;48.838;9.330;2024-03-29T06:59:42;96502.66;;;10.33;49.90
55604;BME280;41468;48.838;9.330;2024-03-29T07:02:08;96500.53;;;10.45;49.83
55604;BME280;41468;48.838;9.330;2024-03-29T07:04:35;96494.69;;;10.46;49.80
55604;BME280;41468;48.838;9.330;2024-03-29T07:07:01;96493.00;;;10.56;48.62
55604;BME280;41468;48.838;9.330;2024-03-29T07:09:26;96502.97;;;10.66;49.49
55604;BME280;41468;48.838;9.330;2024-03-29T07:11:52;96499.63;;;10.82;49.01
55604;BME280;41468;48.838;9.330;2024-03-29T07:14:19;96496.38;;;10.91;48.71
55604;BME280;41468;48.838;9.330;2024-03-29T07:16:45;96485.41;;;10.94;48.85
55604;BME280;41468;48.838;9.330;2024-03-29T07:19:11;96490.81;;;10.98;48.82
55604;BME280;41468;48.838;9.330;2024-03-29T07:21:39;96489.94;;;11.04;48.19
55604;BME280;41468;48.838;9.330;2024-03-29T07:24:05;96490.28;;;11.06;48.32
55604;BME280;41468;48.838;9.330;2024-03-29T07:26:31;96485.47;;;11.14;48.35
55604;BME280;41468;48.838;9.330;2024-03-29T07:28:57;96497.31;;;11.08;48.81
55604;BME280;41468;48.838;9.330;2024-03-29T07:31:23;96515.66;;;11.07;48.65
55604;BME280;41468;48.838;9.330;2024-03-29T07:33:48;96516.13;;;11.02;49.05
55604;BME280;41468;48.838;9.330;2024-03-29T07:36:14;96532.06;;;11.03;49.81
55604;BME280;41468;48.838;9.330;2024-03-29T07:38:42;96524.41;;;10.95;50.39
55604;BME280;41468;48.838;9.330;2024-03-29T07:41:07;96540.06;;;10.91;52.27
55604;BME280;41468;48.838;9.330;2024-03-29T07:43:53;96544.88;;;10.83;59.84
55604;BME280;41468;48.838;9.330;2024-03-29T07:46:22;96530.63;;;10.41;69.85
55604;BME280;41468;48.838;9.330;2024-03-29T07:48:49;96565.50;;;10.23;87.54
55604;BME280;41468;48.838;9.330;2024-03-29T07:51:15;96550.50;;;10.04;80.16
55604;BME280;41468;48.838;9.330;2024-03-29T07:53:41;96548.63;;;9.59;91.56
55604;BME280;41468;48.838;9.330;2024-03-29T07:56:06;96560.66;;;9.65;87.30
55604;BME280;41468;48.838;9.330;2024-03-29T07:58:32;96578.19;;;9.61;87.37
55604;BME280;41468;48.838;9.330;2024-03-29T08:00:57;96588.03;;;9.51;83.18
55604;BME280;41468;48.838;9.330;2024-03-29T08:03:23;96603.84;;;9.63;88.32
55604;BME280;41468;48.838;9.330;2024-03-29T08:06:02;96620.94;;;9.15;100.00
55604;BME280;41468;48.838;9.330;2024-03-29T08:08:31;96627.06;;;9.34;98.09
55604;BME280;41468;48.838;9.330;2024-03-29T08:10:57;96634.81;;;9.39;100.00
55604;BME280;41468;48.838;9.330;2024-03-29T08:13:24;96637.56;;;9.35;98.95
55604;BME280;41468;48.838;9.330;2024-03-29T08:15:59;96631.53;;;9.06;96.68
55604;BME280;41468;48.838;9.330;2024-03-29T08:18:26;96644.34;;;9.09;100.00
55604;BME280;41468;48.838;9.330;2024-03-29T08:20:52;96655.72;;;8.90;100.00
55604;BME280;41468;48.838;9.330;2024-03-29T08:23:19;96649.03;;;9.01;100.00
55604;BME280;41468;48.838;9.330;2024-03-29T08:25:57;96654.03;;;9.10;100.00
55604;BME280;41468;48.838;9.330;2024-03-29T08:28:23;96660.63;;;9.16;100.00
55604;BME280;41468;48.838;9.330;2024-03-29T08:31:02;96665.03;;;8.89;100.00
55604;BME280;41468;48.838;9.330;2024-03-29T08:33:28;96676.59;;;9.11;100.00
55604;BME280;41468;48.838;9.330;2024-03-29T08:35:53;96671.91;;;9.15;100.00
55604;BME280;41468;48.838;9.330;2024-03-29T08:38:19;96678.06;;;9.26;100.00
55604;BME280;41468;48.838;9.330;2024-03-29T08:40:51;96688.19;;;9.25;100.00
55604;BME280;41468;48.838;9.330;2024-03-29T08:43:16;96687.41;;;9.25;100.00
55604;BME280;41468;48.838;9.330;2024-03-29T08:45:55;96690.94;;;9.22;100.00
55604;BME280;41468;48.838;9.330;2024-03-29T08:48:27;96684.69;;;9.21;100.00
55604;BME280;41468;48.838;9.330;2024-03-29T08:50:53;96688.34;;;8.97;100.00
55604;BME280;41468;48.838;9.330;2024-03-29T08:53:18;96695.66;;;9.14;100.00
55604;BME280;41468;48.838;9.330;2024-03-29T08:55:46;96693.38;;;9.02;100.00
55604;BME280;41468;48.838;9.330;2024-03-29T08:58:12;96684.69;;;9.21;100.00
55604;BME280;41468;48.838;9.330;2024-03-29T09:00:37;96687.84;;;9.20;100.00
55604;BME280;41468;48.838;9.330;2024-03-29T09:03:03;96699.47;;;9.27;100.00
55604;BME280;41468;48.838;9.330;2024-03-29T09:05:29;96690.53;;;9.27;100.00
55604;BME280;41468;48.838;9.330;2024-03-29T09:07:55;96685.06;;;9.31;100.00
55604;BME280;41468;48.838;9.330;2024-03-29T09:10:23;96680.69;;;9.44;100.00
55604;BME280;41468;48.838;9.330;2024-03-29T09:12:50;96675.63;;;9.46;100.00
55604;BME280;41468;48.838;9.330;2024-03-29T09:15:15;96663.84;;;9.56;100.00
55604;BME280;41468;48.838;9.330;2024-03-29T09:17:42;96634.94;;;9.69;100.00
55604;BME280;41468;48.838;9.330;2024-03-29T09:20:10;96635.75;;;9.66;100.00
55604;BME280;41468;48.838;9.330;2024-03-29T09:22:36;96650.53;;;9.69;100.00
55604;BME280;41468;48.838;9.330;2024-03-29T09:25:01;96653.59;;;9.74;100.00
55604;BME280;41468;48.838;9.330;2024-03-29T09:27:27;96655.41;;;9.92;100.00
55604;BME280;41468;48.838;9.330;2024-03-29T09:29:54;96672.47;;;10.00;100.00
55604;BME280;41468;48.838;9.330;2024-03-29T09:32:20;96680.66;;;10.00;100.00
55604;BME280;41468;48.838;9.330;2024-03-29T09:34:47;96684.59;;;9.95;100.00
55604;BME280;41468;48.838;9.330;2024-03-29T09:37:12;96692.34;;;10.00;100.00
55604;BME280;41468;48.838;9.330;2024-03-29T09:39:38;96695.34;;;10.09;100.00
55604;BME280;41468;48.838;9.330;2024-03-29T09:42:05;96705.13;;;10.07;100.00
55604;BME280;41468;48.838;9.330;2024-03-29T09:44:33;96703.81;;;10.22;100.00
55604;BME280;41468;48.838;9.330;2024-03-29T09:47:03;96692.25;;;10.07;100.00
55604;BME280;41468;48.838;9.330;2024-03-29T09:49:30;96667.72;;;10.07;100.00
55604;BME280;41468;48.838;9.330;2024-03-29T09:51:57;96652.38;;;10.24;100.00
55604;BME280;41468;48.838;9.330;2024-03-29T09:54:23;96636.06;;;10.17;100.00
55604;BME280;41468;48.838;9.330;2024-03-29T09:56:50;96615.25;;;9.96;100.00
55604;BME280;41468;48.838;9.330;2024-03-29T09:59:15;96608.81;;;10.17;100.00
55604;BME280;41468;48.838;9.330;2024-03-29T10:01:55;96614.47;;;9.95;100.00
55604;BME280;41468;48.838;9.330;2024-03-29T10:04:23;96593.28;;;10.10;100.00
55604;BME280;41468;48.838;9.330;2024-03-29T10:06:49;96609.66;;;10.10;100.00
55604;BME280;41468;48.838;9.330;2024-03-29T10:09:17;96645.25;;;10.34;100.00
55604;BME280;41468;48.838;9.330;2024-03-29T10:11:43;96624.59;;;10.36;100.00
55604;BME280;41468;48.838;9.330;2024-03-29T10:14:10;96628.75;;;10.48;100.00
55604;BME280;41468;48.838;9.330;2024-03-29T10:16:35;96626.50;;;10.39;100.00
55604;BME280;41468;48.838;9.330;2024-03-29T10:19:01;96630.75;;;10.44;100.00
55604;BME280;41468;48.838;9.330;2024-03-29T10:21:27;96627.28;;;10.40;100.00
55604;BME280;41468;48.838;9.330;2024-03-29T10:23:53;96634.22;;;10.45;100.00
55604;BME280;41468;48.838;9.330;2024-03-29T10:26:19;96634.13;;;10.55;100.00
55604;BME280;41468;48.838;9.330;2024-03-29T10:28:50;96626.22;;;10.65;100.00
55604;BME280;41468;48.838;9.330;2024-03-29T10:31:22;96617.47;;;10.77;100.00
55604;BME280;41468;48.838;9.330;2024-03-29T10:33:48;96597.19;;;10.78;100.00
55604;BME280;41468;48.838;9.330;2024-03-29T10:36:14;96604.06;;;10.90;100.00
55604;BME280;41468;48.838;9.330;2024-03-29T10:38:40;96613.38;;;10.92;100.00
55604;BME280;41468;48.838;9.330;2024-03-29T10:41:07;96611.78;;;10.95;100.00
55604;BME280;41468;48.838;9.330;2024-03-29T10:43:33;96608.66;;;10.96;100.00
55604;BME280;41468;48.838;9.330;2024-03-29T10:46:02;96617.78;;;11.13;100.00
55604;BME280;41468;48.838;9.330;2024-03-29T10:48:30;96615.19;;;11.30;100.00
55604;BME280;41468;48.838;9.330;2024-03-29T10:50:58;96610.81;;;11.36;100.00
55604;BME280;41468;48.838;9.330;2024-03-29T10:53:24;96613.50;;;11.39;100.00
55604;BME280;41468;48.838;9.330;2024-03-29T10:56:00;96608.19;;;11.52;100.00
55604;BME280;41468;48.838;9.330;2024-03-29T10:58:33;96609.28;;;11.58;100.00
55604;BME280;41468;48.838;9.330;2024-03-29T11:01:00;96594.78;;;11.61;100.00
55604;BME280;41468;48.838;9.330;2024-03-29T11:06:04;96599.22;;;11.52;100.00
55604;BME280;41468;48.838;9.330;2024-03-29T11:08:34;96606.59;;;11.55;100.00
55604;BME280;41468;48.838;9.330;2024-03-29T11:11:05;96610.72;;;11.66;100.00
55604;BME280;41468;48.838;9.330;2024-03-29T11:16:10;96604.09;;;11.91;100.00
55604;BME280;41468;48.838;9.330;2024-03-29T11:18:37;96596.09;;;12.00;100.00
55604;BME280;41468;48.838;9.330;2024-03-29T11:21:04;96586.84;;;11.94;100.00
55604;BME280;41468;48.838;9.330;2024-03-29T11:23:32;96592.38;;;11.90;100.00
55604;BME280;41468;48.838;9.330;2024-03-29T11:25:58;96586.56;;;12.08;100.00
55604;BME280;41468;48.838;9.330;2024-03-29T11:28:25;96593.16;;;12.11;100.00
55604;BME280;41468;48.838;9.330;2024-03-29T11:31:02;96593.59;;;12.29;100.00
55604;BME280;41468;48.838;9.330;2024-03-29T11:36:20;96591.13;;;12.35;100.00
55604;BME280;41468;48.838;9.330;2024-03-29T11:38:47;96583.84;;;12.48;100.00
55604;BME280;41468;48.838;9.330;2024-03-29T11:41:27;96594.22;;;12.57;100.00
55604;BME280;41468;48.838;9.330;2024-03-29T11:43:55;96587.41;;;12.65;100.00
55604;BME280;41468;48.838;9.330;2024-03-29T11:46:28;96579.41;;;12.74;100.00
55604;BME280;41468;48.838;9.330;2024-03-29T11:48:58;96570.47;;;12.70;100.00
55604;BME280;41468;48.838;9.330;2024-03-29T11:51:24;96568.44;;;12.74;100.00
55604;BME280;41468;48.838;9.330;2024-03-29T11:53:50;96584.91;;;12.91;100.00
55604;BME280;41468;48.838;9.330;2024-03-29T11:56:17;96581.41;;;12.90;100.00
55604;BME280;41468;48.838;9.330;2024-03-29T11:58:42;96586.88;;;12.90;100.00
55604;BME280;41468;48.838;9.330;2024-03-29T12:01:08;96606.13;;;12.87;100.00
55604;BME280;41468;48.838;9.330;2024-03-29T12:03:38;96608.03;;;12.90;100.00
55604;BME280;41468;48.838;9.330;2024-03-29T12:06:04;96614.91;;;12.78;100.00
55604;BME280;41468;48.838;9.330;2024-03-29T12:08:35;96634.22;;;12.91;100.00
55604;BME280;41468;48.838;9.330;2024-03-29T12:11:15;96629.88;;;12.93;100.00
55604;BME280;41468;48.838;9.330;2024-03-29T12:13:40;96637.88;;;12.84;100.00
55604;BME280;41468;48.838;9.330;2024-03-29T12:16:13;96645.53;;;12.93;100.00
55604;BME280;41468;48.838;9.330;2024-03-29T12:18:38;96634.56;;;12.93;100.00
55604;BME280;41468;48.838;9.330;2024-03-29T12:21:05;96629.13;;;13.09;100.00
55604;BME280;41468;48.838;9.330;2024-03-29T12:23:30;96613.69;;;12.99;100.00
55604;BME280;41468;48.838;9.330;2024-03-29T12:25:57;96600.84;;;13.32;100.00
55604;BME280;41468;48.838;9.330;2024-03-29T12:28:24;96595.97;;;13.40;100.00
55604;BME280;41468;48.838;9.330;2024-03-29T12:30:50;96597.00;;;13.46;100.00
55604;BME280;41468;48.838;9.330;2024-03-29T12:33:18;96601.38;;;13.60;100.00
55604;BME280;41468;48.838;9.330;2024-03-29T12:35:51;96602.47;;;13.79;100.00
55604;BME280;41468;48.838;9.330;2024-03-29T12:38:21;96599.03;;;13.91;100.00
55604;BME280;41468;48.838;9.330;2024-03-29T12:40:48;96600.22;;;13.90;100.00
55604;BME280;41468;48.838;9.330;2024-03-29T12:43:15;96588.75;;;14.24;100.00
55604;BME280;41468;48.838;9.330;2024-03-29T12:45:45;96584.81;;;14.25;100.00
55604;BME280;41468;48.838;9.330;2024-03-29T12:48:16;96588.13;;;14.62;100.00
55604;BME280;41468;48.838;9.330;2024-03-29T12:50:43;96602.00;;;14.84;100.00
55604;BME280;41468;48.838;9.330;2024-03-29T12:53:11;96598.63;;;14.93;100.00
55604;BME280;41468;48.838;9.330;2024-03-29T12:55:39;96601.25;;;15.09;97.34
55604;BME280;41468;48.838;9.330;2024-03-29T12:58:07;96603.78;;;14.91;96.83
55604;BME280;41468;48.838;9.330;2024-03-29T13:00:38;96603.69;;;14.94;91.82
55604;BME280;41468;48.838;9.330;2024-03-29T13:03:04;96606.28;;;14.85;88.73
55604;BME280;41468;48.838;9.330;2024-03-29T13:05:30;96610.06;;;14.91;93.40
55604;BME280;41468;48.838;9.330;2024-03-29T13:08:07;96618.16;;;14.82;93.82
55604;BME280;41468;48.838;9.330;2024-03-29T13:10:34;96618.28;;;14.78;94.81
55604;BME280;41468;48.838;9.330;2024-03-29T13:13:00;96603.22;;;14.83;97.44